ETHS

Details ICAO ETHS
Name FASSBERG
Region Germany - Military
Timezone Europe/Berlin (UTC+1.0)
Plans Departing 2
Arriving 2
Stats Elevation 245 ft / 75 m (AMSL)
Location 52.917486° 10.188099°
Runways 3
Magnetic Variation 2.839° E
Sunrise 2017-12-13 07:25:30 UTC / 2017-12-13 08:25:30 Local
Sunset 2017-12-13 15:04:13 UTC / 2017-12-13 16:04:13 Local
Advertisement - Login to hide

Runways

ID Width Length Bearing (true) Bearing (mag) Surface Threshold Offset Overrun Length
06 148 ft / 45 m 1,419 ft / 433 m 64.26° 61.42° Grass 0 ft / 0 m 0 ft / 0 m
09 95 ft / 29 m 7,981 ft / 2,433 m 90.92° 88.08° Asphalt 6,365 ft / 1,940 m 932 ft / 284 m
09L 164 ft / 50 m 3,334 ft / 1,016 m 88.32° 85.48° Grass 0 ft / 0 m 0 ft / 0 m
24 148 ft / 45 m 1,419 ft / 433 m 244.26° 241.42° Grass 0 ft / 0 m 0 ft / 0 m
27 95 ft / 29 m 7,981 ft / 2,433 m 270.95° 268.11° Asphalt 0 ft / 0 m 981 ft / 299 m
27R 164 ft / 50 m 3,334 ft / 1,016 m 268.33° 265.49° Grass 0 ft / 0 m 0 ft / 0 m

Map

Weather


0- 5 10 15 20 25 30 35+ Temperature / ° C

Clouds and Precipitation
Forecast for 2017-12-14 00:00 UTC. Updated 2 hours ago

Ground ~20,000 ft ~40,000 ft Winds

METAR

ETHS 132250Z 20011KT 7000 -RASN BKN007 02/01 Q0985 GRN

TAF

Not found

Frequencies

Tower 122.10 MHz TWR
Approach 122.42 MHz RADAR
Approach 131.32 MHz HANNOVER DIR
Approach 123.30 MHz RADAR
Warning: Do not use this data for real-world aviation or navigation. No guarantee of current accuracy is given.